createdAt,value
2022-12-15T00:02:05.263Z,-3.99
2022-12-15T00:04:50.467Z,-4.04
2022-12-15T00:07:35.184Z,-4.03
2022-12-15T00:10:20.013Z,-4.07
2022-12-15T00:13:04.828Z,-4.09
2022-12-15T00:15:49.729Z,-4.10
2022-12-15T00:18:34.690Z,-4.12
2022-12-15T00:21:19.546Z,-4.11
2022-12-15T00:24:04.363Z,-4.10
2022-12-15T00:26:49.542Z,-4.12
2022-12-15T00:29:34.440Z,-4.06
2022-12-15T00:32:19.293Z,-4.02
2022-12-15T00:35:04.296Z,-4.10
2022-12-15T00:37:49.055Z,-4.05
2022-12-15T00:40:15.736Z,-4.00
2022-12-15T00:42:42.159Z,-4.05
2022-12-15T00:45:09.248Z,-4.12
2022-12-15T00:47:36.393Z,-4.11
2022-12-15T00:50:21.862Z,-4.17
2022-12-15T00:53:06.636Z,-4.19
2022-12-15T00:55:51.635Z,-4.19
2022-12-15T00:58:36.394Z,-4.14
2022-12-15T01:01:26.547Z,-4.11
2022-12-15T01:04:12.276Z,-4.04
2022-12-15T01:06:57.634Z,-4.00
2022-12-15T01:09:42.542Z,-4.07
2022-12-15T01:12:27.327Z,-4.12
2022-12-15T01:15:12.297Z,-4.11
2022-12-15T01:17:57.316Z,-4.10
2022-12-15T01:20:23.747Z,-4.10
2022-12-15T01:22:53.083Z,-4.08
2022-12-15T01:25:20.418Z,-4.04
2022-12-15T01:27:47.477Z,-4.09
2022-12-15T01:30:17.358Z,-4.13
2022-12-15T01:32:46.161Z,-4.13
2022-12-15T01:35:12.842Z,-4.14
2022-12-15T01:37:39.448Z,-4.14
2022-12-15T01:40:25.446Z,-4.09
2022-12-15T01:42:52.747Z,-4.09
2022-12-15T01:45:50.782Z,-4.11
2022-12-15T01:48:40.011Z,-4.13
2022-12-15T01:51:18.078Z,-4.13
2022-12-15T01:54:18.161Z,-4.12
2022-12-15T01:56:47.708Z,-4.17
2022-12-15T01:59:19.664Z,-4.09
2022-12-15T02:01:50.183Z,-4.14
2022-12-15T02:04:19.515Z,-4.15
2022-12-15T02:06:45.943Z,-4.13
2022-12-15T02:09:12.665Z,-4.15
2022-12-15T02:12:01.029Z,-4.17
2022-12-15T02:14:53.781Z,-4.26
2022-12-15T02:17:41.929Z,-4.27
2022-12-15T02:20:14.598Z,-4.27
2022-12-15T02:23:08.755Z,-4.28
2022-12-15T02:26:17.089Z,-4.29
2022-12-15T02:29:17.387Z,-4.29
2022-12-15T02:31:52.560Z,-4.22
2022-12-15T02:34:40.248Z,-4.21
2022-12-15T02:37:15.823Z,-4.26
2022-12-15T02:39:42.446Z,-4.23
2022-12-15T02:42:12.496Z,-4.26
2022-12-15T02:44:46.397Z,-4.30
2022-12-15T02:47:34.055Z,-4.34
2022-12-15T02:50:15.725Z,-4.30
2022-12-15T02:53:00.371Z,-4.34
2022-12-15T02:55:46.523Z,-4.36
2022-12-15T02:58:25.166Z,-4.38
2022-12-15T03:00:58.985Z,-4.42
2022-12-15T03:03:27.555Z,-4.43
2022-12-15T03:05:55.049Z,-4.42
2022-12-15T03:08:22.204Z,-4.43
2022-12-15T03:10:50.977Z,-4.45
2022-12-15T03:13:17.464Z,-4.46
2022-12-15T03:15:44.090Z,-4.42
2022-12-15T03:18:10.569Z,-4.43
2022-12-15T03:20:36.940Z,-4.45
2022-12-15T03:23:03.385Z,-4.45
2022-12-15T03:25:30.159Z,-4.45
2022-12-15T03:27:56.854Z,-4.41
2022-12-15T03:30:23.407Z,-4.44
2022-12-15T03:32:49.804Z,-4.45
2022-12-15T03:35:16.567Z,-4.42
2022-12-15T03:37:43.056Z,-4.42
2022-12-15T03:40:10.490Z,-4.46
2022-12-15T03:42:48.913Z,-4.47
2022-12-15T03:45:18.162Z,-4.47
2022-12-15T03:47:45.296Z,-4.47
2022-12-15T03:50:14.652Z,-4.42
2022-12-15T03:52:40.960Z,-4.44
2022-12-15T03:55:07.719Z,-4.46
2022-12-15T03:57:34.795Z,-4.44
2022-12-15T04:00:01.476Z,-4.45
2022-12-15T04:02:28.023Z,-4.45
2022-12-15T04:04:54.507Z,-4.45
2022-12-15T04:07:20.909Z,-4.41
2022-12-15T04:09:47.356Z,-4.39
2022-12-15T04:12:13.835Z,-4.43
2022-12-15T04:14:42.567Z,-4.42
2022-12-15T04:17:10.236Z,-4.40
2022-12-15T04:19:55.822Z,-4.41
2022-12-15T04:22:22.840Z,-4.42
2022-12-15T04:25:07.925Z,-4.43
2022-12-15T04:27:57.086Z,-4.40
2022-12-15T04:30:45.255Z,-4.40
2022-12-15T04:33:31.030Z,-4.43
2022-12-15T04:36:16.473Z,-4.42
2022-12-15T04:39:01.365Z,-4.47
2022-12-15T04:41:46.757Z,-4.50
2022-12-15T04:44:32.882Z,-4.49
2022-12-15T04:47:17.764Z,-4.51
2022-12-15T04:50:02.716Z,-4.49
2022-12-15T04:52:47.514Z,-4.49
2022-12-15T04:55:32.945Z,-4.51
2022-12-15T04:58:23.374Z,-4.58
2022-12-15T05:01:09.300Z,-4.63
2022-12-15T05:03:54.638Z,-4.63
2022-12-15T05:06:39.486Z,-4.64
2022-12-15T05:09:24.381Z,-4.67
2022-12-15T05:12:09.797Z,-4.67
2022-12-15T05:14:54.512Z,-4.70
2022-12-15T05:17:41.656Z,-4.69
2022-12-15T05:20:27.550Z,-4.72
2022-12-15T05:23:16.283Z,-4.71
2022-12-15T05:26:02.087Z,-4.69
2022-12-15T05:28:47.444Z,-4.74
2022-12-15T05:31:32.727Z,-4.76
2022-12-15T05:34:04.734Z,-4.79
2022-12-15T05:36:32.092Z,-4.72
2022-12-15T05:38:58.501Z,-4.76
2022-12-15T05:41:25.033Z,-4.75
2022-12-15T05:43:51.506Z,-4.73
2022-12-15T05:46:17.940Z,-4.79
2022-12-15T05:48:44.752Z,-4.82
2022-12-15T05:51:12.897Z,-4.79
2022-12-15T05:53:41.301Z,-4.72
2022-12-15T05:56:10.605Z,-4.76
2022-12-15T05:58:44.571Z,-4.80
2022-12-15T06:01:14.391Z,-4.78
2022-12-15T06:03:41.738Z,-4.79
2022-12-15T06:06:09.719Z,-4.76
2022-12-15T06:08:38.641Z,-4.81
2022-12-15T06:11:05.771Z,-4.73
2022-12-15T06:13:36.755Z,-4.73
2022-12-15T06:16:10.488Z,-4.72
2022-12-15T06:18:40.706Z,-4.73
2022-12-15T06:21:10.055Z,-4.72
2022-12-15T06:23:36.727Z,-4.73
2022-12-15T06:26:27.409Z,-4.71
2022-12-15T06:28:59.152Z,-4.69
2022-12-15T06:31:26.123Z,-4.70
2022-12-15T06:34:00.912Z,-4.74
2022-12-15T06:36:28.546Z,-4.73
2022-12-15T06:38:58.063Z,-4.75
2022-12-15T06:41:24.524Z,-4.76
2022-12-15T06:43:52.497Z,-4.71
2022-12-15T06:46:19.787Z,-4.75
2022-12-15T06:48:47.034Z,-4.81
2022-12-15T06:51:17.230Z,-4.83
2022-12-15T06:53:53.754Z,-4.90
2022-12-15T06:56:34.679Z,-4.88
2022-12-15T06:59:05.698Z,-4.96
2022-12-15T07:01:32.750Z,-5.02
2022-12-15T07:04:02.750Z,-5.10
2022-12-15T07:06:36.237Z,-5.12
2022-12-15T07:09:03.968Z,-5.12
2022-12-15T07:11:30.475Z,-5.13
2022-12-15T07:13:56.860Z,-5.22
2022-12-15T07:16:23.730Z,-5.27
2022-12-15T07:18:50.529Z,-5.33
2022-12-15T07:21:17.422Z,-5.35
2022-12-15T07:24:00.621Z,-5.36
2022-12-15T07:26:27.834Z,-5.49
2022-12-15T07:28:54.745Z,-5.55
2022-12-15T07:31:22.168Z,-5.63
2022-12-15T07:33:48.861Z,-5.65
2022-12-15T07:36:15.740Z,-5.74
2022-12-15T07:38:42.585Z,-5.78
2022-12-15T07:41:10.114Z,-5.81
2022-12-15T07:43:37.437Z,-5.89
2022-12-15T07:46:05.323Z,-5.94
2022-12-15T07:48:32.336Z,-5.96
2022-12-15T07:51:07.280Z,-6.00
2022-12-15T07:53:36.084Z,-6.00
2022-12-15T07:56:08.884Z,-5.98
2022-12-15T07:58:35.724Z,-6.03
2022-12-15T08:01:04.390Z,-6.05
2022-12-15T08:03:31.447Z,-6.11
2022-12-15T08:06:03.841Z,-6.08
2022-12-15T08:08:31.368Z,-6.08
2022-12-15T08:10:58.292Z,-6.09
2022-12-15T08:14:00.116Z,-6.19
2022-12-15T08:16:12.270Z,-6.23
2022-12-15T08:18:39.610Z,-6.18
2022-12-15T08:21:09.700Z,-5.98
2022-12-15T08:23:37.237Z,-5.79
2022-12-15T08:26:10.174Z,-5.60
2022-12-15T08:28:38.214Z,-5.40
2022-12-15T08:31:14.115Z,-5.23
2022-12-15T08:33:40.963Z,-5.06
2022-12-15T08:36:10.126Z,-4.90
2022-12-15T08:38:38.617Z,-4.79
2022-12-15T08:41:08.982Z,-4.70
2022-12-15T08:43:35.822Z,-4.64
2022-12-15T08:46:02.352Z,-4.66
2022-12-15T08:48:28.787Z,-4.60
2022-12-15T08:50:56.423Z,-4.51
2022-12-15T08:53:31.388Z,-4.34
2022-12-15T08:56:09.397Z,-4.22
2022-12-15T08:58:35.982Z,-4.06
2022-12-15T09:01:05.263Z,-3.94
2022-12-15T09:03:32.954Z,-3.87
2022-12-15T09:06:12.370Z,-3.77
2022-12-15T09:08:50.195Z,-3.70
2022-12-15T09:11:17.437Z,-3.51
2022-12-15T09:13:49.227Z,-3.43
2022-12-15T09:16:17.187Z,-3.33
2022-12-15T09:18:49.355Z,-3.20
2022-12-15T09:21:16.787Z,-3.11
2022-12-15T09:23:51.958Z,-3.03
2022-12-15T09:26:20.584Z,-2.95
2022-12-15T09:28:50.152Z,-2.85
2022-12-15T09:31:20.815Z,-2.74
2022-12-15T09:33:47.833Z,-2.64
2022-12-15T09:36:14.701Z,-2.55
2022-12-15T09:38:42.412Z,-2.44
2022-12-15T09:41:23.017Z,-2.44
2022-12-15T09:43:58.638Z,-2.41
2022-12-15T09:46:34.781Z,-2.35
2022-12-15T09:49:19.707Z,-2.26
2022-12-15T09:51:55.971Z,-2.27
2022-12-15T09:54:26.698Z,-2.21
2022-12-15T09:56:56.662Z,-2.15
2022-12-15T09:59:34.836Z,-2.08
2022-12-15T10:02:28.201Z,-2.07
2022-12-15T10:05:18.994Z,-1.97
2022-12-15T10:07:46.593Z,-1.89
2022-12-15T10:10:49.932Z,-1.79
2022-12-15T10:13:28.871Z,-1.68
2022-12-15T10:16:02.949Z,-1.64
2022-12-15T10:18:47.878Z,-1.65
2022-12-15T10:21:22.252Z,-1.69
2022-12-15T10:23:50.501Z,-1.66
2022-12-15T10:26:23.274Z,-1.67
2022-12-15T10:29:11.818Z,-1.61
2022-12-15T10:31:52.281Z,-1.71
2022-12-15T10:34:48.914Z,-1.77
2022-12-15T10:37:18.989Z,-1.85
2022-12-15T10:42:49.314Z,-1.79
2022-12-15T10:45:33.115Z,-1.85
2022-12-15T10:48:02.405Z,-1.69
2022-12-15T10:50:28.949Z,-1.65
2022-12-15T10:52:55.725Z,-1.67
2022-12-15T10:55:32.767Z,-1.81
2022-12-15T10:58:01.067Z,-1.69
2022-12-15T11:00:30.216Z,-1.67
2022-12-15T11:02:58.068Z,-1.73
2022-12-15T11:05:25.418Z,-1.79
2022-12-15T11:08:13.294Z,-1.85
2022-12-15T11:11:13.328Z,-1.98
2022-12-15T11:13:41.018Z,-1.89
2022-12-15T11:16:17.089Z,-1.89
2022-12-15T11:18:58.798Z,-1.85
2022-12-15T11:21:39.357Z,-1.82
2022-12-15T11:24:15.717Z,-1.84
2022-12-15T11:26:50.769Z,-1.90
2022-12-15T11:29:23.420Z,-1.84
2022-12-15T11:31:52.286Z,-1.76
2022-12-15T11:34:31.192Z,-1.83
2022-12-15T11:37:08.363Z,-1.83
2022-12-15T11:39:56.112Z,-1.85
2022-12-15T11:42:46.616Z,-1.78
2022-12-15T11:45:25.970Z,-1.85
2022-12-15T11:48:02.356Z,-1.81
2022-12-15T11:50:53.433Z,-1.84
2022-12-15T11:53:32.324Z,-1.94
2022-12-15T11:56:16.247Z,-1.97
2022-12-15T11:59:18.006Z,-1.99
2022-12-15T12:02:02.946Z,-2.03
2022-12-15T12:04:38.804Z,-2.03
2022-12-15T12:07:11.171Z,-2.03
2022-12-15T12:09:54.182Z,-2.00
2022-12-15T12:12:40.916Z,-1.97
2022-12-15T12:15:13.263Z,-2.02
2022-12-15T12:17:55.122Z,-2.05
2022-12-15T12:20:27.007Z,-2.06
2022-12-15T12:23:03.170Z,-2.03
2022-12-15T12:25:34.909Z,-2.04
2022-12-15T12:28:06.798Z,-2.00
2022-12-15T12:30:45.884Z,-2.09
2022-12-15T12:33:40.156Z,-2.12
2022-12-15T12:36:15.264Z,-2.12
2022-12-15T12:38:56.069Z,-2.10
2022-12-15T12:41:44.962Z,-2.14
2022-12-15T12:44:25.213Z,-2.10
2022-12-15T12:47:05.441Z,-2.09
2022-12-15T12:49:40.701Z,-2.13
2022-12-15T12:52:31.967Z,-2.19
2022-12-15T12:55:14.842Z,-2.17
2022-12-15T12:57:42.844Z,-2.15
2022-12-15T13:00:27.363Z,-2.16
2022-12-15T13:03:23.697Z,-2.18
2022-12-15T13:05:56.444Z,-2.15
2022-12-15T13:08:37.677Z,-2.17
2022-12-15T13:11:42.276Z,-2.11
2022-12-15T13:14:26.108Z,-2.13
2022-12-15T13:17:25.375Z,-2.18
2022-12-15T13:19:58.070Z,-2.29
2022-12-15T13:22:29.306Z,-2.31
2022-12-15T13:24:57.336Z,-2.26
2022-12-15T13:27:42.974Z,-2.28
2022-12-15T13:30:09.279Z,-2.24
2022-12-15T13:32:37.205Z,-2.24
2022-12-15T13:35:25.316Z,-2.26
2022-12-15T13:38:03.112Z,-2.25
2022-12-15T13:40:35.046Z,-2.24
2022-12-15T13:43:04.464Z,-2.21
2022-12-15T13:45:52.300Z,-2.25
2022-12-15T13:48:33.993Z,-2.21
2022-12-15T13:51:06.178Z,-2.26
2022-12-15T13:53:40.662Z,-2.22
2022-12-15T13:56:24.555Z,-2.24
2022-12-15T13:58:59.717Z,-2.24
2022-12-15T14:01:32.356Z,-2.28
2022-12-15T14:04:15.757Z,-2.30
2022-12-15T14:06:56.121Z,-2.36
2022-12-15T14:09:28.443Z,-2.33
2022-12-15T14:11:55.083Z,-2.38
2022-12-15T14:14:28.258Z,-2.38
2022-12-15T14:16:59.304Z,-2.39
2022-12-15T14:19:26.665Z,-2.39
2022-12-15T14:21:55.966Z,-2.46
2022-12-15T14:24:41.363Z,-2.62
2022-12-15T14:27:08.434Z,-2.71
2022-12-15T14:29:34.936Z,-2.78
2022-12-15T14:32:01.910Z,-2.86
2022-12-15T14:34:41.712Z,-2.92
2022-12-15T14:37:15.735Z,-3.00
2022-12-15T14:39:46.036Z,-2.94
2022-12-15T14:42:27.518Z,-3.06
2022-12-15T14:44:58.071Z,-3.11
2022-12-15T14:47:30.943Z,-3.15
2022-12-15T14:50:01.043Z,-3.26
2022-12-15T14:52:39.722Z,-3.35
2022-12-15T14:55:37.011Z,-3.28
2022-12-15T14:58:34.371Z,-3.35
2022-12-15T15:01:02.418Z,-3.37
2022-12-15T15:03:06.720Z,-1.80
2022-12-15T15:03:40.927Z,-3.39
2022-12-15T15:06:13.410Z,-3.55
2022-12-15T15:08:49.681Z,-3.64
2022-12-15T15:11:31.555Z,-3.70
2022-12-15T15:14:30.212Z,-3.80
2022-12-15T15:17:43.080Z,-3.87
2022-12-15T15:20:22.273Z,-3.84
2022-12-15T15:23:02.818Z,-3.99
2022-12-15T15:25:41.240Z,-4.10
2022-12-15T15:28:10.770Z,-4.09
2022-12-15T15:30:49.559Z,-4.12
2022-12-15T15:33:17.113Z,-4.14
2022-12-15T15:35:46.400Z,-4.18
2022-12-15T15:38:21.453Z,-4.11
2022-12-15T15:40:52.859Z,-4.19
2022-12-15T15:43:19.532Z,-4.19
2022-12-15T15:45:47.406Z,-4.22
2022-12-15T15:48:18.591Z,-4.24
2022-12-15T15:50:45.141Z,-4.23
2022-12-15T15:53:18.514Z,-4.22
2022-12-15T15:55:46.384Z,-4.24
2022-12-15T15:58:13.254Z,-4.19
2022-12-15T16:00:40.185Z,-4.24
2022-12-15T16:03:08.477Z,-4.26
2022-12-15T16:05:35.736Z,-4.26
2022-12-15T16:08:03.946Z,-4.28
2022-12-15T16:10:30.658Z,-4.27
2022-12-15T16:13:02.734Z,-4.25
2022-12-15T16:15:34.083Z,-4.22
2022-12-15T16:18:00.655Z,-4.23
2022-12-15T16:20:29.763Z,-4.28
2022-12-15T16:23:17.277Z,-4.26
2022-12-15T16:25:50.548Z,-4.26
2022-12-15T16:28:25.022Z,-4.25
2022-12-15T16:30:52.326Z,-4.22
2022-12-15T16:33:19.302Z,-4.13
2022-12-15T16:35:48.248Z,-4.19
2022-12-15T16:38:24.406Z,-4.27
2022-12-15T16:40:51.539Z,-4.30
2022-12-15T16:43:20.893Z,-4.31
2022-12-15T16:45:50.002Z,-4.27
2022-12-15T16:48:16.827Z,-4.27
2022-12-15T16:50:46.922Z,-4.31
2022-12-15T16:53:20.359Z,-4.31
2022-12-15T16:55:48.381Z,-4.36
2022-12-15T16:58:17.151Z,-4.30
2022-12-15T17:00:46.935Z,-4.33
2022-12-15T17:03:18.802Z,-4.35
2022-12-15T17:05:49.527Z,-4.48
2022-12-15T17:08:25.869Z,-4.43
2022-12-15T17:10:52.422Z,-4.43
2022-12-15T17:13:23.616Z,-4.44
2022-12-15T17:15:50.085Z,-4.44
2022-12-15T17:18:16.493Z,-4.45
2022-12-15T17:20:43.105Z,-4.47
2022-12-15T17:23:18.935Z,-4.45
2022-12-15T17:26:19.626Z,-4.46
2022-12-15T17:28:39.093Z,-4.48
2022-12-15T17:31:05.552Z,-4.55
2022-12-15T17:33:35.025Z,-4.54
2022-12-15T17:36:06.845Z,-4.57
2022-12-15T17:38:33.308Z,-4.53
2022-12-15T17:41:00.859Z,-4.52
2022-12-15T17:43:35.170Z,-4.56
2022-12-15T17:46:04.693Z,-4.57
2022-12-15T17:48:31.112Z,-4.60
2022-12-15T17:50:57.624Z,-4.63
2022-12-15T17:53:25.037Z,-4.62
2022-12-15T17:55:53.357Z,-4.59
2022-12-15T17:58:22.174Z,-4.58
2022-12-15T18:00:53.241Z,-4.53
2022-12-15T18:03:21.318Z,-4.51
2022-12-15T18:05:52.858Z,-4.50
2022-12-15T18:08:21.015Z,-4.47
2022-12-15T18:10:50.623Z,-4.48
2022-12-15T18:13:22.072Z,-4.48
2022-12-15T18:15:49.085Z,-4.47
2022-12-15T18:18:17.218Z,-4.50
2022-12-15T18:20:44.486Z,-4.52
2022-12-15T18:23:25.642Z,-4.44
2022-12-15T18:25:52.387Z,-4.50
2022-12-15T18:28:29.407Z,-4.51
2022-12-15T18:31:00.873Z,-4.51
2022-12-15T18:33:30.132Z,-4.54
2022-12-15T18:35:56.736Z,-4.53
2022-12-15T18:38:25.513Z,-4.57
2022-12-15T18:40:54.886Z,-4.63
2022-12-15T18:43:22.442Z,-4.62
2022-12-15T18:45:50.201Z,-4.59
2022-12-15T18:48:22.679Z,-4.61
2022-12-15T18:50:52.737Z,-4.62
2022-12-15T18:53:34.583Z,-4.60
2022-12-15T18:56:04.231Z,-4.59
2022-12-15T18:58:32.323Z,-4.57
2022-12-15T19:01:00.978Z,-4.59
2022-12-15T19:03:28.580Z,-4.64
2022-12-15T19:06:05.386Z,-4.68
2022-12-15T19:08:36.011Z,-4.68
2022-12-15T19:11:10.470Z,-4.71
2022-12-15T19:13:38.614Z,-4.76
2022-12-15T19:16:10.221Z,-4.73
2022-12-15T19:18:55.307Z,-4.74
2022-12-15T19:21:42.923Z,-4.78
2022-12-15T19:24:44.369Z,-4.75
2022-12-15T19:27:20.961Z,-4.82
2022-12-15T19:29:50.998Z,-4.84
2022-12-15T19:32:17.396Z,-4.85
2022-12-15T19:34:44.267Z,-4.83
2022-12-15T19:37:21.231Z,-4.85
2022-12-15T19:39:47.832Z,-4.86
2022-12-15T19:42:19.548Z,-4.87
2022-12-15T19:44:45.927Z,-4.86
2022-12-15T19:47:15.147Z,-4.88
2022-12-15T19:49:43.162Z,-4.87
2022-12-15T19:52:14.729Z,-4.92
2022-12-15T19:54:42.730Z,-4.92
2022-12-15T19:57:12.304Z,-4.95
2022-12-15T19:59:38.778Z,-4.92
2022-12-15T20:02:05.495Z,-4.95
2022-12-15T20:04:33.892Z,-4.93
2022-12-15T20:07:04.084Z,-4.97
2022-12-15T20:09:30.539Z,-4.96
2022-12-15T20:11:57.232Z,-4.94
2022-12-15T20:14:24.716Z,-5.01
2022-12-15T20:16:51.225Z,-5.01
2022-12-15T20:19:20.281Z,-4.97
2022-12-15T20:21:46.706Z,-4.99
2022-12-15T20:24:19.702Z,-4.95
2022-12-15T20:26:46.827Z,-4.98
2022-12-15T20:29:29.588Z,-4.96
2022-12-15T20:31:57.604Z,-4.95
2022-12-15T20:34:24.806Z,-5.00
2022-12-15T20:36:51.387Z,-5.00
2022-12-15T20:39:29.215Z,-5.02
2022-12-15T20:41:56.630Z,-5.05
2022-12-15T20:44:24.089Z,-5.03
2022-12-15T20:46:50.751Z,-5.01
2022-12-15T20:49:20.066Z,-5.03
2022-12-15T20:51:48.258Z,-5.00
2022-12-15T20:54:17.784Z,-5.02
2022-12-15T20:56:44.973Z,-4.97
2022-12-15T20:59:12.020Z,-5.01
2022-12-15T21:01:39.237Z,-4.98
2022-12-15T21:04:22.491Z,-4.97
2022-12-15T21:06:54.500Z,-4.94
2022-12-15T21:09:21.899Z,-4.89
2022-12-15T21:11:49.027Z,-4.83
2022-12-15T21:14:22.309Z,-4.76
2022-12-15T21:16:49.287Z,-4.73
2022-12-15T21:19:21.211Z,-4.68
2022-12-15T21:21:52.998Z,-4.63
2022-12-15T21:24:24.728Z,-4.56
2022-12-15T21:26:52.161Z,-4.51
2022-12-15T21:29:22.676Z,-4.44
2022-12-15T21:31:49.884Z,-4.37
2022-12-15T21:34:16.314Z,-4.32
2022-12-15T21:36:45.628Z,-4.28
2022-12-15T21:39:33.459Z,-4.23
2022-12-15T21:42:04.577Z,-4.15
2022-12-15T21:44:31.016Z,-4.15
2022-12-15T21:46:57.586Z,-4.06
2022-12-15T21:49:24.302Z,-4.11
2022-12-15T21:51:58.518Z,-4.07
2022-12-15T21:54:30.909Z,-3.98
2022-12-15T21:57:00.891Z,-3.91
2022-12-15T21:59:30.593Z,-3.85
2022-12-15T22:01:57.279Z,-3.80
2022-12-15T22:04:28.294Z,-3.76
2022-12-15T22:06:54.684Z,-3.71
2022-12-15T22:09:21.716Z,-3.71
2022-12-15T22:11:53.770Z,-3.66
2022-12-15T22:14:34.455Z,-3.65
2022-12-15T22:17:10.436Z,-3.62
2022-12-15T22:19:36.794Z,-3.54
2022-12-15T22:22:03.209Z,-3.52
2022-12-15T22:24:29.564Z,-3.48
2022-12-15T22:26:55.971Z,-3.39
2022-12-15T22:29:23.303Z,-3.35
2022-12-15T22:31:50.627Z,-3.31
2022-12-15T22:34:20.859Z,-3.27
2022-12-15T22:36:48.266Z,-3.25
2022-12-15T22:39:15.032Z,-3.24
2022-12-15T22:41:44.745Z,-3.23
2022-12-15T22:44:25.016Z,-3.21
2022-12-15T22:46:53.968Z,-3.19
2022-12-15T22:49:24.910Z,-3.20
2022-12-15T22:51:51.322Z,-3.18
2022-12-15T22:54:23.772Z,-3.19
2022-12-15T22:57:05.356Z,-3.18
2022-12-15T22:59:37.293Z,-3.16
2022-12-15T23:02:04.004Z,-3.17
2022-12-15T23:04:31.727Z,-3.17
2022-12-15T23:07:03.227Z,-3.15
2022-12-15T23:09:32.836Z,-3.10
2022-12-15T23:11:59.239Z,-3.11
2022-12-15T23:14:44.201Z,-3.03
2022-12-15T23:17:12.562Z,-2.95
2022-12-15T23:19:43.834Z,-2.91
2022-12-15T23:22:10.680Z,-2.88
2022-12-15T23:24:37.154Z,-2.82
2022-12-15T23:27:06.970Z,-2.85
2022-12-15T23:29:34.512Z,-2.82
2022-12-15T23:32:00.881Z,-2.82
2022-12-15T23:34:29.053Z,-2.82
2022-12-15T23:36:55.421Z,-2.87
2022-12-15T23:39:21.808Z,-2.85
2022-12-15T23:41:48.189Z,-2.84
2022-12-15T23:44:14.598Z,-2.79
2022-12-15T23:46:41.999Z,-2.76
2022-12-15T23:49:08.702Z,-2.75
2022-12-15T23:51:35.076Z,-2.76
2022-12-15T23:54:01.455Z,-2.70
2022-12-15T23:56:27.985Z,-2.69
2022-12-15T23:58:56.837Z,-2.69
